Time;durP1;ratioP1;P1;durP2;ratioP2;P2;SDS_P1;SDS_P2;PMS_P1;PMS_P2;Temp;Humidity;BMP_temperature;BMP_pressure;BME280_temperature;BME280_humidity;BME280_pressure;Samples;Min_cycle;Max_cycle;Signal;HPM_P1;HPM_P2
2021/09/08 00:00:21;;;;;;;12.00;5.63;;;;;;;;;;5097823;28;20035;-84
2021/09/08 00:02:47;;;;;;;15.50;5.88;;;;;;;;;;5095271;28;20069;-84
2021/09/08 00:05:13;;;;;;;8.02;5.28;;;;;;;;;;5097636;28;20020;-84
2021/09/08 00:07:39;;;;;;;9.90;5.47;;;;;;;;;;5096449;28;20342;-83
2021/09/08 00:10:07;;;;;;;9.73;5.50;;;;;;;;;;5097519;28;20031;-84
2021/09/08 00:12:33;;;;;;;8.85;5.68;;;;;;;;;;5097530;28;20020;-85
2021/09/08 00:14:59;;;;;;;10.80;5.35;;;;;;;;;;5097391;28;20140;-84
2021/09/08 00:17:25;;;;;;;8.68;5.45;;;;;;;;;;5099060;28;20039;-84
2021/09/08 00:19:51;;;;;;;6.40;4.97;;;;;;;;;;5101569;28;20049;-84
2021/09/08 00:22:17;;;;;;;8.35;5.20;;;;;;;;;;5101260;28;20024;-83
2021/09/08 00:24:43;;;;;;;8.82;5.38;;;;;;;;;;5101269;28;20016;-83
2021/09/08 00:27:09;;;;;;;11.13;5.53;;;;;;;;;;5101246;28;20420;-83
2021/09/08 00:29:36;;;;;;;8.80;5.75;;;;;;;;;;5101383;28;20059;-83
2021/09/08 00:32:02;;;;;;;10.13;5.13;;;;;;;;;;5101266;28;20039;-84
2021/09/08 00:34:28;;;;;;;11.30;6.07;;;;;;;;;;5101158;28;20028;-84
2021/09/08 00:36:54;;;;;;;7.95;5.45;;;;;;;;;;5099581;28;20040;-84
2021/09/08 00:39:20;;;;;;;8.23;5.32;;;;;;;;;;5101012;28;20041;-84
2021/09/08 00:41:46;;;;;;;9.20;5.25;;;;;;;;;;5101004;28;20032;-84
2021/09/08 00:44:14;;;;;;;9.10;5.28;;;;;;;;;;5100900;28;20073;-85
2021/09/08 00:46:41;;;;;;;10.48;5.53;;;;;;;;;;5101062;28;20322;-84
2021/09/08 00:49:07;;;;;;;10.45;5.30;;;;;;;;;;5099755;28;20417;-83
2021/09/08 00:51:33;;;;;;;6.78;4.93;;;;;;;;;;5101024;28;20024;-83
2021/09/08 00:53:59;;;;;;;10.25;5.53;;;;;;;;;;5100953;28;20024;-83
2021/09/08 00:56:27;;;;;;;13.13;6.20;;;;;;;;;;5099754;28;20070;-84
2021/09/08 00:58:53;;;;;;;9.07;5.70;;;;;;;;;;5100853;28;20024;-84
2021/09/08 01:01:19;;;;;;;10.38;5.18;;;;;;;;;;5100735;28;20081;-84
2021/09/08 01:03:46;;;;;;;8.82;5.35;;;;;;;;;;5099604;28;20370;-84
2021/09/08 01:06:12;;;;;;;8.68;5.72;;;;;;;;;;5099268;28;20032;-84
2021/09/08 01:08:38;;;;;;;7.40;5.15;;;;;;;;;;5100684;28;20027;-84
2021/09/08 01:11:05;;;;;;;13.02;6.22;;;;;;;;;;5099351;28;20052;-84
2021/09/08 01:13:31;;;;;;;10.27;5.30;;;;;;;;;;5100508;28;20031;-84
2021/09/08 01:15:59;;;;;;;10.02;5.55;;;;;;;;;;5100343;28;20402;-84
2021/09/08 01:18:25;;;;;;;12.70;6.13;;;;;;;;;;5082440;28;20060;-84
2021/09/08 01:20:51;;;;;;;7.72;5.18;;;;;;;;;;5099040;28;20039;-84
2021/09/08 01:23:17;;;;;;;7.35;5.38;;;;;;;;;;5100369;28;20035;-83
2021/09/08 01:25:43;;;;;;;7.97;5.85;;;;;;;;;;5100302;28;20402;-84
2021/09/08 01:28:09;;;;;;;8.52;5.82;;;;;;;;;;5099951;28;20032;-84
2021/09/08 01:30:35;;;;;;;9.32;5.40;;;;;;;;;;5098879;28;20032;-84
2021/09/08 01:33:01;;;;;;;9.00;5.03;;;;;;;;;;5100036;28;20028;-84
2021/09/08 01:35:28;;;;;;;9.38;5.28;;;;;;;;;;5100068;28;20401;-84
2021/09/08 01:37:54;;;;;;;7.43;5.40;;;;;;;;;;5100017;28;20402;-84
2021/09/08 01:40:21;;;;;;;10.60;5.82;;;;;;;;;;5099996;28;20045;-84
2021/09/08 01:42:47;;;;;;;8.55;5.78;;;;;;;;;;5099952;28;20024;-84
2021/09/08 01:45:14;;;;;;;12.27;6.40;;;;;;;;;;5100104;28;20020;-84
2021/09/08 01:47:41;;;;;;;11.38;6.43;;;;;;;;;;5099911;28;20034;-84
2021/09/08 01:50:08;;;;;;;12.55;5.90;;;;;;;;;;5098333;28;20406;-84
2021/09/08 01:52:34;;;;;;;9.90;6.25;;;;;;;;;;5098746;28;20115;-84
2021/09/08 01:55:01;;;;;;;9.52;5.88;;;;;;;;;;5099774;28;20027;-84
2021/09/08 01:57:27;;;;;;;11.13;6.68;;;;;;;;;;5099767;28;20016;-84
2021/09/08 01:59:53;;;;;;;9.20;6.45;;;;;;;;;;5099834;28;20024;-84
2021/09/08 02:02:19;;;;;;;9.65;6.10;;;;;;;;;;5099598;28;20025;-84
2021/09/08 02:04:45;;;;;;;9.45;6.50;;;;;;;;;;5098515;28;20023;-85
2021/09/08 02:07:11;;;;;;;16.30;6.78;;;;;;;;;;5098390;28;20031;-84
2021/09/08 02:09:37;;;;;;;9.38;6.20;;;;;;;;;;5099532;28;20072;-84
2021/09/08 02:12:03;;;;;;;13.82;6.45;;;;;;;;;;5099617;28;20020;-84
2021/09/08 02:14:29;;;;;;;11.48;6.82;;;;;;;;;;5099324;28;20051;-85
2021/09/08 02:16:55;;;;;;;10.15;6.20;;;;;;;;;;5099502;28;20035;-84
2021/09/08 02:19:21;;;;;;;11.75;7.07;;;;;;;;;;5097687;28;20059;-84
2021/09/08 02:21:47;;;;;;;16.38;7.32;;;;;;;;;;5099451;28;20020;-85
2021/09/08 02:24:13;;;;;;;11.60;6.90;;;;;;;;;;5099114;28;20024;-84
2021/09/08 02:26:39;;;;;;;11.77;6.80;;;;;;;;;;5099284;28;20414;-85
2021/09/08 02:29:05;;;;;;;11.32;6.88;;;;;;;;;;5099228;28;20066;-85
2021/09/08 02:31:32;;;;;;;12.55;6.45;;;;;;;;;;5099181;28;20031;-85
2021/09/08 02:33:58;;;;;;;12.20;7.15;;;;;;;;;;5098951;28;20023;-85
2021/09/08 02:36:25;;;;;;;9.95;6.38;;;;;;;;;;5098951;28;20020;-84
2021/09/08 02:38:51;;;;;;;13.50;6.50;;;;;;;;;;5099080;28;20039;-84
2021/09/08 02:41:36;;;;;;;10.35;6.78;;;;;;;;;;5096682;28;20036;-85
2021/09/08 02:44:02;;;;;;;12.90;7.10;;;;;;;;;;5098740;28;20031;-85
2021/09/08 02:46:28;;;;;;;12.27;5.90;;;;;;;;;;5098690;28;20405;-85
2021/09/08 02:48:54;;;;;;;10.55;6.90;;;;;;;;;;5097325;28;20501;-85
2021/09/08 02:51:20;;;;;;;9.73;6.20;;;;;;;;;;5098617;28;20410;-85
2021/09/08 02:53:46;;;;;;;10.13;6.20;;;;;;;;;;5098992;28;20032;-85
2021/09/08 02:56:12;;;;;;;12.02;6.68;;;;;;;;;;5098735;28;20028;-84
2021/09/08 02:58:39;;;;;;;8.20;6.32;;;;;;;;;;5098685;28;20077;-85
2021/09/08 03:01:05;;;;;;;9.93;6.45;;;;;;;;;;5098555;28;20051;-85
2021/09/08 03:03:31;;;;;;;11.32;6.25;;;;;;;;;;5098463;28;20024;-85
2021/09/08 03:05:57;;;;;;;9.23;5.85;;;;;;;;;;5098567;28;20044;-85
2021/09/08 03:08:23;;;;;;;11.30;6.90;;;;;;;;;;5098670;28;20066;-85
2021/09/08 03:10:49;;;;;;;9.13;6.25;;;;;;;;;;5098543;28;20079;-85
2021/09/08 03:13:16;;;;;;;10.38;6.10;;;;;;;;;;5098397;28;20024;-85
2021/09/08 03:15:42;;;;;;;10.73;6.30;;;;;;;;;;5098183;28;20043;-85
2021/09/08 03:18:08;;;;;;;13.07;6.43;;;;;;;;;;5098213;28;20434;-85
2021/09/08 03:20:34;;;;;;;14.55;6.63;;;;;;;;;;5098109;28;20405;-84
2021/09/08 03:23:00;;;;;;;12.50;6.25;;;;;;;;;;5098031;28;20034;-85
2021/09/08 03:25:27;;;;;;;10.60;6.13;;;;;;;;;;5098341;28;20032;-84
2021/09/08 03:27:53;;;;;;;12.63;6.43;;;;;;;;;;5098166;28;20020;-85
2021/09/08 03:30:19;;;;;;;8.43;5.90;;;;;;;;;;5097089;28;20030;-84
2021/09/08 03:32:45;;;;;;;11.95;6.47;;;;;;;;;;5096887;28;20027;-84
2021/09/08 03:35:11;;;;;;;8.80;6.53;;;;;;;;;;5097717;28;20119;-85
2021/09/08 03:37:38;;;;;;;8.32;5.95;;;;;;;;;;5097915;28;20106;-84
2021/09/08 03:40:05;;;;;;;11.63;6.50;;;;;;;;;;5097799;28;20024;-85
2021/09/08 03:42:31;;;;;;;14.57;6.60;;;;;;;;;;5097792;28;20028;-85
2021/09/08 03:44:57;;;;;;;12.57;6.55;;;;;;;;;;5097879;28;20028;-84
2021/09/08 03:47:24;;;;;;;9.13;6.53;;;;;;;;;;5097816;28;20040;-84
2021/09/08 03:49:50;;;;;;;9.85;6.22;;;;;;;;;;5096314;28;20047;-85
2021/09/08 03:52:17;;;;;;;14.90;6.60;;;;;;;;;;5096801;28;20099;-85
2021/09/08 03:54:43;;;;;;;11.10;6.32;;;;;;;;;;5097748;28;20024;-85
2021/09/08 03:57:09;;;;;;;11.45;6.65;;;;;;;;;;5096607;28;20032;-85
2021/09/08 03:59:36;;;;;;;11.73;6.47;;;;;;;;;;5096621;28;20024;-85
2021/09/08 04:02:02;;;;;;;12.00;6.57;;;;;;;;;;5097737;28;20348;-84
2021/09/08 04:04:29;;;;;;;11.00;6.60;;;;;;;;;;5097438;28;20028;-84
2021/09/08 04:06:55;;;;;;;13.77;7.30;;;;;;;;;;5097426;28;20432;-84
2021/09/08 04:09:21;;;;;;;14.73;7.53;;;;;;;;;;5097608;28;20334;-85
2021/09/08 04:11:47;;;;;;;14.18;6.95;;;;;;;;;;5097558;28;20362;-85
2021/09/08 04:14:13;;;;;;;10.48;7.25;;;;;;;;;;5097467;28;20030;-84
2021/09/08 04:16:39;;;;;;;11.55;6.60;;;;;;;;;;5097536;28;20048;-84
2021/09/08 04:19:05;;;;;;;10.32;6.57;;;;;;;;;;5097273;28;20048;-86
2021/09/08 04:21:31;;;;;;;17.63;7.38;;;;;;;;;;5097285;28;20031;-85
2021/09/08 04:23:57;;;;;;;12.10;6.97;;;;;;;;;;5096394;28;20017;-84
2021/09/08 04:26:23;;;;;;;11.57;6.38;;;;;;;;;;5097222;28;20025;-83
2021/09/08 04:28:50;;;;;;;15.00;7.13;;;;;;;;;;5097532;28;20028;-83
2021/09/08 04:31:16;;;;;;;14.60;7.05;;;;;;;;;;5097255;28;20050;-83
2021/09/08 04:33:43;;;;;;;12.55;6.70;;;;;;;;;;5097058;28;20031;-84
2021/09/08 04:36:09;;;;;;;16.83;7.75;;;;;;;;;;5097178;28;20130;-84
2021/09/08 04:38:35;;;;;;;15.75;7.82;;;;;;;;;;5095941;28;20032;-80
2021/09/08 04:41:02;;;;;;;11.65;7.05;;;;;;;;;;5096781;28;20032;-80
2021/09/08 04:43:28;;;;;;;13.90;7.00;;;;;;;;;;5095586;28;20413;-80
2021/09/08 04:45:55;;;;;;;14.20;7.00;;;;;;;;;;5096728;28;20401;-79
2021/09/08 04:48:21;;;;;;;15.27;7.05;;;;;;;;;;5095272;28;20416;-79
2021/09/08 04:50:47;;;;;;;12.60;6.97;;;;;;;;;;5096898;28;20081;-79
2021/09/08 04:53:13;;;;;;;12.35;6.95;;;;;;;;;;5096644;28;20016;-79
2021/09/08 04:55:39;;;;;;;10.65;6.75;;;;;;;;;;5095683;28;20144;-79
2021/09/08 04:58:07;;;;;;;12.75;6.78;;;;;;;;;;5096619;28;20432;-79
2021/09/08 05:00:34;;;;;;;13.65;7.13;;;;;;;;;;5096777;28;20043;-80
2021/09/08 05:03:00;;;;;;;11.38;7.10;;;;;;;;;;5096287;28;20414;-79
2021/09/08 05:05:26;;;;;;;18.10;7.00;;;;;;;;;;5100246;28;20310;-79
2021/09/08 05:07:52;;;;;;;9.82;6.95;;;;;;;;;;5100229;28;20409;-79
2021/09/08 05:10:18;;;;;;;14.10;6.32;;;;;;;;;;5100237;28;20024;-79
2021/09/08 05:12:44;;;;;;;16.77;6.95;;;;;;;;;;5098655;28;20333;-79
2021/09/08 05:15:10;;;;;;;11.30;6.70;;;;;;;;;;5100186;28;20420;-79
2021/09/08 05:17:36;;;;;;;9.98;5.85;;;;;;;;;;5098936;28;20036;-79
2021/09/08 05:20:06;;;;;;;10.20;6.18;;;;;;;;;;5100091;28;20422;-79
2021/09/08 05:22:32;;;;;;;10.40;6.20;;;;;;;;;;5100129;28;20039;-79
2021/09/08 05:24:59;;;;;;;8.57;5.90;;;;;;;;;;5100219;28;20020;-79
2021/09/08 05:27:25;;;;;;;12.80;5.45;;;;;;;;;;5099724;28;20367;-79
2021/09/08 05:29:51;;;;;;;10.32;5.20;;;;;;;;;;5099532;28;20421;-79
2021/09/08 05:32:17;;;;;;;15.18;5.72;;;;;;;;;;5099767;28;20428;-79
2021/09/08 05:34:43;;;;;;;21.05;6.20;;;;;;;;;;5098589;28;20043;-79
2021/09/08 05:37:09;;;;;;;11.75;5.65;;;;;;;;;;5099794;28;20024;-79
2021/09/08 05:39:35;;;;;;;8.57;4.95;;;;;;;;;;5099097;28;20059;-79
2021/09/08 05:42:01;;;;;;;12.10;7.05;;;;;;;;;;5099259;28;20028;-79
2021/09/08 05:44:27;;;;;;;15.20;6.78;;;;;;;;;;5099783;28;20107;-79
2021/09/08 05:46:53;;;;;;;12.98;8.25;;;;;;;;;;5099487;28;20027;-79
2021/09/08 05:49:19;;;;;;;15.68;6.57;;;;;;;;;;5099435;28;20020;-79
2021/09/08 05:51:45;;;;;;;16.90;6.50;;;;;;;;;;5099638;28;20024;-79
2021/09/08 05:54:11;;;;;;;14.25;6.38;;;;;;;;;;5099533;28;20047;-79
2021/09/08 05:56:37;;;;;;;14.30;6.35;;;;;;;;;;5099370;28;20052;-79
2021/09/08 05:59:03;;;;;;;14.48;7.63;;;;;;;;;;5097918;28;20412;-79
2021/09/08 06:01:29;;;;;;;12.25;7.68;;;;;;;;;;5099347;28;20066;-79
2021/09/08 06:03:55;;;;;;;24.10;7.60;;;;;;;;;;5098996;28;20467;-79
2021/09/08 06:06:22;;;;;;;15.88;9.02;;;;;;;;;;5099130;28;20085;-79
2021/09/08 06:08:48;;;;;;;21.10;9.00;;;;;;;;;;5099049;28;20406;-79
2021/09/08 06:11:14;;;;;;;13.95;7.85;;;;;;;;;;5099249;28;20032;-79
2021/09/08 06:13:40;;;;;;;10.77;7.00;;;;;;;;;;5099030;28;20103;-79
2021/09/08 06:16:06;;;;;;;22.08;13.60;;;;;;;;;;5097952;28;20078;-79
2021/09/08 06:18:32;;;;;;;10.95;6.65;;;;;;;;;;5098731;28;20076;-79
2021/09/08 06:20:59;;;;;;;18.30;11.40;;;;;;;;;;5098448;28;20024;-79
2021/09/08 06:23:25;;;;;;;23.13;12.05;;;;;;;;;;5098652;28;20031;-79
2021/09/08 06:25:51;;;;;;;18.67;10.25;;;;;;;;;;5098812;28;20621;-79
2021/09/08 06:28:18;;;;;;;20.00;12.25;;;;;;;;;;5098607;28;20043;-79
2021/09/08 06:30:44;;;;;;;20.95;10.40;;;;;;;;;;5098875;28;20024;-79
2021/09/08 06:33:10;;;;;;;25.77;16.15;;;;;;;;;;5098349;28;20422;-79
2021/09/08 06:35:37;;;;;;;15.30;10.23;;;;;;;;;;5098539;28;20028;-79
2021/09/08 06:38:03;;;;;;;20.52;11.57;;;;;;;;;;5097532;28;20035;-79
2021/09/08 06:40:29;;;;;;;14.85;8.27;;;;;;;;;;5098458;28;20115;-79
2021/09/08 06:42:55;;;;;;;19.58;10.43;;;;;;;;;;5098415;28;20313;-79
2021/09/08 06:45:21;;;;;;;19.85;10.95;;;;;;;;;;5098504;28;20062;-79
2021/09/08 06:47:47;;;;;;;16.88;9.80;;;;;;;;;;5098382;28;20043;-79
2021/09/08 06:50:13;;;;;;;15.10;8.00;;;;;;;;;;5097184;28;20028;-80
2021/09/08 06:52:39;;;;;;;12.20;6.93;;;;;;;;;;5098241;28;20367;-80
2021/09/08 06:55:06;;;;;;;27.30;9.02;;;;;;;;;;5098177;28;20363;-80
2021/09/08 06:57:32;;;;;;;11.98;7.15;;;;;;;;;;5098141;28;20016;-80
2021/09/08 06:59:58;;;;;;;17.05;8.18;;;;;;;;;;5096507;28;20028;-80
2021/09/08 07:02:24;;;;;;;15.60;8.82;;;;;;;;;;5098136;28;20024;-80
2021/09/08 07:04:50;;;;;;;12.77;7.13;;;;;;;;;;5097984;28;20028;-79
2021/09/08 07:07:19;;;;;;;21.85;13.13;;;;;;;;;;5096930;28;20031;-80
2021/09/08 07:09:45;;;;;;;12.77;6.13;;;;;;;;;;5097036;28;20435;-80
2021/09/08 07:12:12;;;;;;;22.52;15.02;;;;;;;;;;5097840;28;20035;-80
2021/09/08 07:14:38;;;;;;;14.98;9.80;;;;;;;;;;5097962;28;20024;-80
2021/09/08 07:17:04;;;;;;;15.15;7.10;;;;;;;;;;5097464;28;20024;-80
2021/09/08 07:19:30;;;;;;;15.68;9.20;;;;;;;;;;5096369;28;20330;-80
2021/09/08 07:21:56;;;;;;;10.38;6.35;;;;;;;;;;5097867;28;20020;-80
2021/09/08 07:24:22;;;;;;;14.85;8.18;;;;;;;;;;5097314;28;20027;-80
2021/09/08 07:26:48;;;;;;;15.25;7.97;;;;;;;;;;5095831;28;20035;-79
2021/09/08 07:29:14;;;;;;;20.90;12.48;;;;;;;;;;5097636;28;20069;-79
2021/09/08 07:31:40;;;;;;;18.20;10.90;;;;;;;;;;5097424;28;20425;-79
2021/09/08 07:34:06;;;;;;;17.02;10.80;;;;;;;;;;5097519;28;20020;-79
2021/09/08 07:36:32;;;;;;;16.02;8.48;;;;;;;;;;5096347;28;20040;-79
2021/09/08 07:38:58;;;;;;;19.55;9.77;;;;;;;;;;5096454;28;20035;-79
2021/09/08 07:41:24;;;;;;;11.70;5.90;;;;;;;;;;5097642;28;20020;-79
2021/09/08 07:43:50;;;;;;;15.30;8.43;;;;;;;;;;5096257;28;20434;-79
2021/09/08 07:46:17;;;;;;;11.35;4.15;;;;;;;;;;5097299;28;20024;-79
2021/09/08 07:48:43;;;;;;;13.50;5.63;;;;;;;;;;5097353;28;20043;-79
2021/09/08 07:51:09;;;;;;;9.10;4.20;;;;;;;;;;5097338;28;20016;-79
2021/09/08 07:53:36;;;;;;;8.45;4.50;;;;;;;;;;5097513;28;20028;-79
2021/09/08 07:56:02;;;;;;;9.25;3.38;;;;;;;;;;5096148;28;20036;-79
2021/09/08 07:58:28;;;;;;;6.80;2.83;;;;;;;;;;5096104;28;20126;-79
2021/09/08 08:00:54;;;;;;;8.27;2.85;;;;;;;;;;5097302;28;20032;-79
2021/09/08 08:03:21;;;;;;;6.00;2.70;;;;;;;;;;5097243;28;20069;-79
2021/09/08 08:05:47;;;;;;;11.65;2.80;;;;;;;;;;5096140;28;20028;-79
2021/09/08 08:08:14;;;;;;;11.70;2.70;;;;;;;;;;5096072;28;20020;-79
2021/09/08 08:10:40;;;;;;;6.60;3.25;;;;;;;;;;5097029;28;20319;-79
2021/09/08 08:13:06;;;;;;;8.40;3.35;;;;;;;;;;5097258;28;20036;-80
2021/09/08 08:15:32;;;;;;;9.98;4.80;;;;;;;;;;5096024;28;20024;-80
2021/09/08 08:17:58;;;;;;;12.75;3.22;;;;;;;;;;5096842;28;20445;-79
2021/09/08 08:20:25;;;;;;;6.38;2.80;;;;;;;;;;5097035;28;20115;-79
2021/09/08 08:22:51;;;;;;;8.18;2.53;;;;;;;;;;5095781;28;20051;-79
2021/09/08 08:25:18;;;;;;;6.20;2.78;;;;;;;;;;5097228;28;20024;-79
2021/09/08 08:27:44;;;;;;;5.85;3.08;;;;;;;;;;5097038;28;20036;-79
2021/09/08 08:30:11;;;;;;;10.70;2.80;;;;;;;;;;5096875;28;20024;-79
2021/09/08 08:32:37;;;;;;;5.57;2.97;;;;;;;;;;5097018;28;20031;-79
2021/09/08 08:35:04;;;;;;;6.63;3.03;;;;;;;;;;5096845;28;20081;-80
2021/09/08 08:37:30;;;;;;;12.18;4.28;;;;;;;;;;5096705;28;20020;-80
2021/09/08 08:39:56;;;;;;;25.05;16.42;;;;;;;;;;5100907;28;20020;-80
2021/09/08 08:42:24;;;;;;;13.07;5.65;;;;;;;;;;5100678;28;20032;-79
2021/09/08 08:44:51;;;;;;;6.60;2.88;;;;;;;;;;5099610;28;20103;-79
2021/09/08 08:47:17;;;;;;;7.18;2.85;;;;;;;;;;5100727;28;20053;-79
2021/09/08 08:49:44;;;;;;;5.45;2.58;;;;;;;;;;5100698;28;20449;-79
2021/09/08 08:52:11;;;;;;;9.98;3.40;;;;;;;;;;5100665;28;20020;-79
2021/09/08 08:54:37;;;;;;;8.00;3.97;;;;;;;;;;5100621;28;20027;-79
2021/09/08 08:57:03;;;;;;;9.85;3.30;;;;;;;;;;5100520;28;20032;-79
2021/09/08 08:59:29;;;;;;;8.60;3.00;;;;;;;;;;5100693;28;20028;-79
2021/09/08 09:01:55;;;;;;;9.77;3.40;;;;;;;;;;5100555;28;20028;-79
2021/09/08 09:04:21;;;;;;;9.23;2.97;;;;;;;;;;5100383;28;20039;-79
2021/09/08 09:06:49;;;;;;;11.00;2.85;;;;;;;;;;5100247;28;20026;-79
2021/09/08 09:09:16;;;;;;;9.25;5.18;;;;;;;;;;5100326;28;20028;-79
2021/09/08 09:11:43;;;;;;;9.00;3.72;;;;;;;;;;5099082;28;20124;-79
2021/09/08 09:14:10;;;;;;;19.45;9.02;;;;;;;;;;5100260;28;20398;-79
2021/09/08 09:16:39;;;;;;;17.63;8.30;;;;;;;;;;5100186;28;20078;-79
2021/09/08 09:19:05;;;;;;;9.93;4.75;;;;;;;;;;5100034;28;20059;-79
2021/09/08 09:21:31;;;;;;;9.82;4.95;;;;;;;;;;5100005;28;20028;-79
2021/09/08 09:23:58;;;;;;;27.05;10.07;;;;;;;;;;5100006;28;20055;-79
2021/09/08 09:26:29;;;;;;;18.90;7.10;;;;;;;;;;5099858;28;20136;-79
2021/09/08 09:29:04;;;;;;;16.00;7.95;;;;;;;;;;5099598;28;20070;-79
2021/09/08 09:31:30;;;;;;;9.98;5.32;;;;;;;;;;5099926;28;20028;-78
2021/09/08 09:33:57;;;;;;;15.57;8.40;;;;;;;;;;5099674;28;20061;-77
2021/09/08 09:36:24;;;;;;;14.82;7.25;;;;;;;;;;5099694;28;20028;-78
2021/09/08 09:38:52;;;;;;;14.80;8.15;;;;;;;;;;5098632;28;20036;-78
2021/09/08 09:41:36;;;;;;;23.80;8.20;;;;;;;;;;5099855;28;20043;-78
2021/09/08 09:44:06;;;;;;;11.95;7.35;;;;;;;;;;5098458;28;20424;-78
2021/09/08 09:46:34;;;;;;;13.82;6.57;;;;;;;;;;5099604;28;20020;-78
2021/09/08 09:49:04;;;;;;;11.93;5.90;;;;;;;;;;5098397;28;20032;-78
2021/09/08 09:51:30;;;;;;;13.73;9.20;;;;;;;;;;5099683;28;20028;-78
2021/09/08 09:53:56;;;;;;;25.05;13.15;;;;;;;;;;5098355;28;20036;-78
2021/09/08 09:56:22;;;;;;;24.23;13.85;;;;;;;;;;5098340;28;20132;-79
2021/09/08 09:58:48;;;;;;;14.48;8.50;;;;;;;;;;5099488;28;20031;-79
2021/09/08 10:01:15;;;;;;;13.35;6.97;;;;;;;;;;5099283;28;20034;-79
2021/09/08 10:03:41;;;;;;;9.57;4.63;;;;;;;;;;5099165;28;20032;-78
2021/09/08 10:06:07;;;;;;;13.70;8.40;;;;;;;;;;5098951;28;20042;-79
2021/09/08 10:08:39;;;;;;;8.57;4.72;;;;;;;;;;5098980;28;20107;-79
2021/09/08 10:11:05;;;;;;;;;;;;;;;;;;5091527;28;20033;-78
2021/09/08 10:13:34;;;;;;;11.27;4.55;;;;;;;;;;5076628;28;20427;-79
2021/09/08 10:16:00;;;;;;;11.73;3.70;;;;;;;;;;5078791;28;20024;-79
2021/09/08 10:18:28;;;;;;;12.98;4.68;;;;;;;;;;5077373;28;20127;-78
2021/09/08 10:21:19;;;;;;;13.60;6.05;;;;;;;;;;5078708;28;20039;-78
2021/09/08 10:23:53;;;;;;;10.25;6.63;;;;;;;;;;5077507;28;20032;-79
2021/09/08 10:26:19;;;;;;;17.50;10.40;;;;;;;;;;5078582;28;20410;-79
2021/09/08 10:28:46;;;;;;;13.38;5.20;;;;;;;;;;5078564;28;20053;-79
2021/09/08 10:31:14;;;;;;;16.98;9.60;;;;;;;;;;5077372;28;20116;-79
2021/09/08 10:33:41;;;;;;;12.23;5.18;;;;;;;;;;5078285;28;20318;-79
2021/09/08 10:36:11;;;;;;;15.93;5.15;;;;;;;;;;5078375;28;20082;-79
2021/09/08 10:38:37;;;;;;;10.35;5.30;;;;;;;;;;5078468;28;20025;-79
2021/09/08 10:41:03;;;;;;;9.02;4.10;;;;;;;;;;5078481;28;20051;-79
2021/09/08 10:43:33;;;;;;;6.40;4.18;;;;;;;;;;5078149;28;20049;-79
2021/09/08 10:46:00;;;;;;;9.88;5.18;;;;;;;;;;5078365;28;20043;-79
2021/09/08 10:48:45;;;;;;;9.40;4.53;;;;;;;;;;5078039;28;20357;-79
2021/09/08 10:51:20;;;;;;;5.88;4.00;;;;;;;;;;5078094;28;20112;-79
2021/09/08 10:54:01;;;;;;;12.77;4.47;;;;;;;;;;5077903;28;20115;-79
2021/09/08 10:56:53;;;;;;;7.32;4.32;;;;;;;;;;5078199;28;20077;-78
2021/09/08 10:59:19;;;;;;;12.52;5.70;;;;;;;;;;5074996;28;20029;-78
2021/09/08 11:01:46;;;;;;;8.70;4.25;;;;;;;;;;5077389;28;20032;-79
2021/09/08 11:04:15;;;;;;;8.30;4.13;;;;;;;;;;5077754;28;20037;-78
2021/09/08 11:06:46;;;;;;;8.38;4.72;;;;;;;;;;5077719;28;20116;-78
2021/09/08 11:09:24;;;;;;;9.57;5.00;;;;;;;;;;5076710;28;20105;-78
2021/09/08 11:11:52;;;;;;;13.32;4.40;;;;;;;;;;5085657;28;20384;-79
2021/09/08 11:14:18;;;;;;;9.85;3.90;;;;;;;;;;5088369;28;20024;-79
2021/09/08 11:16:44;;;;;;;7.18;3.83;;;;;;;;;;5082816;28;20024;-78
2021/09/08 11:19:14;;;;;;;7.60;3.70;;;;;;;;;;5077373;28;20044;-79
2021/09/08 11:21:40;;;;;;;11.65;4.03;;;;;;;;;;5077813;28;20047;-79
2021/09/08 11:24:08;;;;;;;5.60;3.50;;;;;;;;;;5077572;28;20082;-79
2021/09/08 11:26:38;;;;;;;7.50;4.72;;;;;;;;;;5076474;28;20027;-79
2021/09/08 11:29:08;;;;;;;5.38;3.40;;;;;;;;;;5077555;28;20062;-79
2021/09/08 11:31:38;;;;;;;8.85;4.28;;;;;;;;;;5076470;28;20024;-79
2021/09/08 11:34:04;;;;;;;10.18;4.28;;;;;;;;;;5077370;28;20024;-79
2021/09/08 11:36:31;;;;;;;8.23;4.00;;;;;;;;;;5077182;28;20422;-82
2021/09/08 11:38:59;;;;;;;7.50;4.22;;;;;;;;;;5077357;28;20052;-81
2021/09/08 11:41:29;;;;;;;12.75;4.78;;;;;;;;;;5077422;28;20031;-81
2021/09/08 11:43:56;;;;;;;12.27;4.88;;;;;;;;;;5077318;28;20470;-81
2021/09/08 11:46:23;;;;;;;10.23;3.90;;;;;;;;;;5076295;28;20070;-81
2021/09/08 11:48:53;;;;;;;8.70;4.10;;;;;;;;;;5076096;28;20028;-81
2021/09/08 11:51:20;;;;;;;6.38;3.50;;;;;;;;;;5077124;28;20068;-81
2021/09/08 11:53:48;;;;;;;5.97;3.80;;;;;;;;;;5077311;28;20038;-81
2021/09/08 11:56:17;;;;;;;7.78;3.42;;;;;;;;;;5081396;28;20028;-80
2021/09/08 11:58:46;;;;;;;5.72;3.33;;;;;;;;;;5084744;28;20058;-81
2021/09/08 12:01:13;;;;;;;5.75;3.25;;;;;;;;;;5086220;28;20140;-80
2021/09/08 12:03:41;;;;;;;7.32;3.95;;;;;;;;;;5082268;28;20028;-81
2021/09/08 12:06:28;;;;;;;12.00;3.47;;;;;;;;;;5077036;28;20017;-81
2021/09/08 12:08:57;;;;;;;5.97;3.70;;;;;;;;;;5076740;28;20028;-81
2021/09/08 12:11:47;;;;;;;7.25;3.70;;;;;;;;;;5075969;28;20334;-81
2021/09/08 12:14:32;;;;;;;6.43;3.72;;;;;;;;;;5080096;28;20025;-81
2021/09/08 12:16:58;;;;;;;6.07;3.75;;;;;;;;;;5081096;28;20098;-81
2021/09/08 12:19:31;;;;;;;9.27;4.15;;;;;;;;;;5079888;28;20438;-81
2021/09/08 12:22:09;;;;;;;7.38;3.53;;;;;;;;;;5080919;28;20116;-81
2021/09/08 12:24:39;;;;;;;6.88;3.75;;;;;;;;;;5079803;28;20410;-81
2021/09/08 12:27:05;;;;;;;7.47;3.58;;;;;;;;;;5081094;28;20120;-81
2021/09/08 12:29:31;;;;;;;18.83;6.50;;;;;;;;;;5079823;28;20029;-80
2021/09/08 12:32:00;;;;;;;8.18;3.60;;;;;;;;;;5080692;28;20036;-80
2021/09/08 12:34:42;;;;;;;15.95;4.13;;;;;;;;;;5079622;28;20028;-81
2021/09/08 12:37:11;;;;;;;5.97;3.80;;;;;;;;;;5079635;28;20029;-81
2021/09/08 12:39:48;;;;;;;9.18;4.03;;;;;;;;;;5079665;28;20123;-81
2021/09/08 12:42:24;;;;;;;6.88;3.70;;;;;;;;;;5079494;28;20037;-81
2021/09/08 12:44:51;;;;;;;9.95;3.20;;;;;;;;;;5080432;28;20031;-81
2021/09/08 12:47:22;;;;;;;6.18;3.63;;;;;;;;;;5080322;28;20410;-81
2021/09/08 12:49:49;;;;;;;7.05;2.95;;;;;;;;;;5080463;28;20025;-83
2021/09/08 12:52:16;;;;;;;5.85;3.60;;;;;;;;;;5080588;28;20449;-80
2021/09/08 12:54:42;;;;;;;6.97;3.75;;;;;;;;;;5080265;28;20403;-80
2021/09/08 12:57:13;;;;;;;5.55;3.63;;;;;;;;;;5079121;28;20029;-80
2021/09/08 12:59:40;;;;;;;6.80;4.10;;;;;;;;;;5080219;28;20380;-80
2021/09/08 13:02:08;;;;;;;14.40;8.27;;;;;;;;;;5080117;28;20041;-81
2021/09/08 13:04:34;;;;;;;7.88;5.03;;;;;;;;;;5080248;28;20021;-81
2021/09/08 13:07:01;;;;;;;8.18;4.85;;;;;;;;;;5079140;28;20410;-81
2021/09/08 13:09:28;;;;;;;10.48;4.97;;;;;;;;;;5078966;28;20027;-81
2021/09/08 13:11:55;;;;;;;7.10;4.25;;;;;;;;;;5078890;28;20036;-80
2021/09/08 13:14:21;;;;;;;8.57;3.90;;;;;;;;;;5079966;28;20052;-81
2021/09/08 13:16:47;;;;;;;12.15;6.05;;;;;;;;;;5079875;28;20021;-80
2021/09/08 13:19:13;;;;;;;13.18;6.45;;;;;;;;;;5079780;28;20055;-81
2021/09/08 13:21:40;;;;;;;8.15;4.82;;;;;;;;;;5080050;28;20025;-81
2021/09/08 13:24:06;;;;;;;8.05;5.13;;;;;;;;;;5079388;28;20032;-81
2021/09/08 13:26:53;;;;;;;13.18;4.80;;;;;;;;;;5079757;28;20410;-80
2021/09/08 13:29:19;;;;;;;8.00;4.15;;;;;;;;;;5079967;28;20090;-81
2021/09/08 13:31:45;;;;;;;11.45;7.30;;;;;;;;;;5079697;28;20074;-80
2021/09/08 13:34:12;;;;;;;7.53;5.32;;;;;;;;;;5079533;28;20024;-81
2021/09/08 13:36:38;;;;;;;7.05;3.78;;;;;;;;;;5079504;28;20017;-80
2021/09/08 13:39:06;;;;;;;9.13;6.88;;;;;;;;;;5079801;28;20039;-81
2021/09/08 13:41:32;;;;;;;9.50;4.90;;;;;;;;;;5079514;28;20035;-80
2021/09/08 13:43:58;;;;;;;9.15;3.75;;;;;;;;;;5079375;28;20035;-80
2021/09/08 13:46:25;;;;;;;5.82;3.33;;;;;;;;;;5079635;28;20024;-80
2021/09/08 13:48:51;;;;;;;10.23;7.78;;;;;;;;;;5079359;28;20073;-81
2021/09/08 13:51:17;;;;;;;8.50;3.90;;;;;;;;;;5079403;28;20056;-83
2021/09/08 13:53:44;;;;;;;6.85;3.85;;;;;;;;;;5078829;28;20303;-85
2021/09/08 13:56:10;;;;;;;9.13;3.88;;;;;;;;;;5079868;28;20027;-85
2021/09/08 13:58:36;;;;;;;11.10;5.80;;;;;;;;;;5079751;28;20069;-85
2021/09/08 14:01:03;;;;;;;8.70;5.00;;;;;;;;;;5079420;28;20043;-85
2021/09/08 14:03:31;;;;;;;9.50;5.63;;;;;;;;;;5079401;28;20029;-85
2021/09/08 14:05:59;;;;;;;8.75;4.13;;;;;;;;;;5079657;28;20042;-85
2021/09/08 14:08:26;;;;;;;6.10;4.60;;;;;;;;;;5079628;28;20082;-85
2021/09/08 14:10:55;;;;;;;8.40;5.45;;;;;;;;;;5079509;28;20326;-85
2021/09/08 14:13:21;;;;;;;6.45;4.28;;;;;;;;;;5079171;28;20440;-85
2021/09/08 14:15:47;;;;;;;10.68;4.75;;;;;;;;;;5079464;28;20028;-86
2021/09/08 14:18:13;;;;;;;8.20;4.03;;;;;;;;;;5079317;28;20067;-85
2021/09/08 14:20:39;;;;;;;7.95;3.22;;;;;;;;;;5077976;28;20124;-85
2021/09/08 14:23:05;;;;;;;4.80;3.00;;;;;;;;;;5079328;28;20021;-85
2021/09/08 14:25:32;;;;;;;5.75;2.95;;;;;;;;;;5079121;28;20021;-85
2021/09/08 14:27:58;;;;;;;5.07;2.88;;;;;;;;;;5078871;28;20044;-86
2021/09/08 14:30:24;;;;;;;6.50;2.72;;;;;;;;;;5088342;28;20464;-86
2021/09/08 14:32:50;;;;;;;12.88;3.28;;;;;;;;;;5098196;28;20483;-93
2021/09/08 14:35:18;;;;;;;8.27;2.47;;;;;;;;;;5098816;28;20123;-92